Time;durP1;ratioP1;P1;durP2;ratioP2;P2;SDS_P1;SDS_P2;PMS_P1;PMS_P2;Temp;Humidity;BMP_temperature;BMP_pressure;BME280_temperature;BME280_humidity;BME280_pressure;Samples;Min_cycle;Max_cycle;Signal;HPM_P1;HPM_P2
2024/02/06 00:01:21;;;;;;;7.53;4.05;;;9.60;99.90;;;;;;4130194;28;20042;-70
2024/02/06 00:03:22;;;;;;;9.10;4.22;;;9.70;99.90;;;;;;4133363;28;20038;-70
2024/02/06 00:05:23;;;;;;;9.15;4.10;;;9.70;99.90;;;;;;4140289;28;20050;-70
2024/02/06 00:07:23;;;;;;;9.75;4.47;;;9.60;99.90;;;;;;4148094;28;20397;-70
2024/02/06 00:09:24;;;;;;;10.18;4.13;;;9.60;99.90;;;;;;4140416;28;20041;-70
2024/02/06 00:11:25;;;;;;;6.80;4.20;;;9.60;99.90;;;;;;4140531;28;20030;-70
2024/02/06 00:13:25;;;;;;;11.43;4.38;;;9.70;99.90;;;;;;4141465;28;20050;-69
2024/02/06 00:15:26;;;;;;;12.10;4.15;;;9.60;99.90;;;;;;4140106;28;20074;-70
2024/02/06 00:17:26;;;;;;;9.57;4.30;;;9.60;99.90;;;;;;4142595;28;20034;-70
2024/02/06 00:19:27;;;;;;;8.65;4.15;;;9.70;99.90;;;;;;4144752;28;20443;-70
2024/02/06 00:21:28;;;;;;;6.30;3.47;;;9.70;99.90;;;;;;4140062;28;20509;-70
2024/02/06 00:23:28;;;;;;;12.25;4.85;;;9.60;99.90;;;;;;4142490;28;20151;-69
2024/02/06 00:25:29;;;;;;;11.73;4.43;;;9.60;99.90;;;;;;4140017;28;20064;-70
2024/02/06 00:27:29;;;;;;;8.63;4.55;;;9.70;99.90;;;;;;4142614;28;20041;-70
2024/02/06 00:29:30;;;;;;;11.23;4.57;;;9.70;99.90;;;;;;4142392;28;20034;-70
2024/02/06 00:31:31;;;;;;;12.38;4.47;;;9.60;99.90;;;;;;4141677;28;20501;-69
2024/02/06 00:33:31;;;;;;;13.80;4.65;;;9.60;99.90;;;;;;4141409;28;20052;-70
2024/02/06 00:35:32;;;;;;;10.60;4.32;;;9.60;99.90;;;;;;4141824;28;20044;-70
2024/02/06 00:37:33;;;;;;;15.10;4.90;;;9.70;99.90;;;;;;4142947;28;20152;-70
2024/02/06 00:39:33;;;;;;;12.90;4.47;;;9.70;99.90;;;;;;4142041;28;20386;-70
2024/02/06 00:41:34;;;;;;;11.32;4.03;;;9.70;99.90;;;;;;4141847;28;20038;-70
2024/02/06 00:43:34;;;;;;;13.65;4.78;;;9.70;99.90;;;;;;4143074;28;20485;-70
2024/02/06 00:45:35;;;;;;;8.88;4.30;;;9.70;99.90;;;;;;4141639;28;20050;-70
2024/02/06 00:47:36;;;;;;;10.68;4.15;;;9.70;99.90;;;;;;4142275;28;20038;-70
2024/02/06 00:49:36;;;;;;;9.00;3.55;;;9.70;99.90;;;;;;4142521;28;20042;-70
2024/02/06 00:51:37;;;;;;;9.20;4.05;;;9.70;99.90;;;;;;4143475;28;20042;-70
2024/02/06 00:53:37;;;;;;;10.88;3.85;;;9.80;99.90;;;;;;4144270;28;20073;-70
2024/02/06 00:55:38;;;;;;;11.00;4.50;;;9.80;99.90;;;;;;4144582;28;20448;-70
2024/02/06 00:57:39;;;;;;;9.15;3.63;;;9.70;99.90;;;;;;4145772;28;20038;-70
2024/02/06 00:59:40;;;;;;;8.65;3.88;;;9.80;99.90;;;;;;4145467;28;20065;-70
2024/02/06 01:01:40;;;;;;;6.40;3.75;;;9.80;99.90;;;;;;4145039;28;20037;-70
2024/02/06 01:03:41;;;;;;;6.38;3.40;;;9.80;99.90;;;;;;4149415;28;20048;-70
2024/02/06 01:05:41;;;;;;;11.52;4.30;;;9.80;99.90;;;;;;4144223;28;20057;-70
2024/02/06 01:07:42;;;;;;;12.65;4.45;;;9.90;99.90;;;;;;4147608;28;20463;-67
2024/02/06 01:09:42;;;;;;;10.15;4.05;;;9.80;99.90;;;;;;4145496;28;20122;-67
2024/02/06 01:11:43;;;;;;;10.32;3.50;;;9.90;99.90;;;;;;4144753;28;20450;-66
2024/02/06 01:13:44;;;;;;;9.80;3.63;;;9.90;99.90;;;;;;4145717;28;20041;-67
2024/02/06 01:15:44;;;;;;;6.05;3.60;;;9.90;99.90;;;;;;4144598;28;20478;-67
2024/02/06 01:17:45;;;;;;;10.55;3.80;;;9.90;99.90;;;;;;4147892;28;20529;-67
2024/02/06 01:19:45;;;;;;;12.77;3.65;;;9.90;99.90;;;;;;4144792;28;20034;-67
2024/02/06 01:21:46;;;;;;;9.40;3.92;;;10.00;99.90;;;;;;4144693;28;20168;-67
2024/02/06 01:23:46;;;;;;;11.07;3.65;;;10.00;99.90;;;;;;4145227;28;20034;-67
2024/02/06 01:25:47;;;;;;;6.55;3.83;;;10.00;99.90;;;;;;4143741;28;20482;-67
2024/02/06 01:27:48;;;;;;;12.30;3.80;;;10.00;99.90;;;;;;4144879;28;20038;-68
2024/02/06 01:29:48;;;;;;;11.43;3.70;;;10.00;99.90;;;;;;4141865;28;20966;-67
2024/02/06 01:31:49;;;;;;;5.15;3.13;;;10.00;99.90;;;;;;4144115;28;20398;-67
2024/02/06 01:33:50;;;;;;;11.50;4.15;;;10.00;99.90;;;;;;4126975;28;20061;-67
2024/02/06 01:35:51;;;;;;;11.10;4.07;;;10.00;99.90;;;;;;4146306;28;20037;-67
2024/02/06 01:37:51;;;;;;;6.70;3.40;;;10.00;99.90;;;;;;4144262;28;20177;-67
2024/02/06 01:39:52;;;;;;;8.68;3.35;;;10.00;99.90;;;;;;4144688;28;20045;-67
2024/02/06 01:41:53;;;;;;;9.90;3.97;;;10.00;99.90;;;;;;4143831;28;20038;-67
2024/02/06 01:43:53;;;;;;;13.10;3.58;;;10.00;99.90;;;;;;4145167;28;20033;-67
2024/02/06 01:45:55;;;;;;;8.25;3.60;;;10.00;99.90;;;;;;4144299;28;20066;-67
2024/02/06 01:47:55;;;;;;;7.60;3.38;;;10.00;99.90;;;;;;4148457;28;20038;-67
2024/02/06 01:49:57;;;;;;;8.73;3.30;;;10.00;99.90;;;;;;4148435;28;20041;-66
2024/02/06 01:51:57;;;;;;;9.38;3.35;;;10.00;99.90;;;;;;4145207;28;20593;-67
2024/02/06 01:53:58;;;;;;;6.95;3.30;;;10.00;99.90;;;;;;4142700;28;20099;-67
2024/02/06 01:55:59;;;;;;;6.65;3.08;;;10.00;99.90;;;;;;4144148;28;20414;-67
2024/02/06 01:58:01;;;;;;;8.55;3.45;;;10.10;99.90;;;;;;4144526;28;20033;-66
2024/02/06 02:00:07;;;;;;;8.38;3.35;;;10.10;99.90;;;;;;4144923;28;20483;-67
2024/02/06 02:02:08;;;;;;;8.05;3.47;;;10.10;99.90;;;;;;4146278;28;20048;-67
2024/02/06 02:04:09;;;;;;;7.30;3.35;;;10.10;99.90;;;;;;4144326;28;20042;-67
2024/02/06 02:06:11;;;;;;;16.98;4.57;;;10.10;99.90;;;;;;4147871;28;20030;-67
2024/02/06 02:08:12;;;;;;;6.85;3.40;;;10.10;99.90;;;;;;4144535;28;20045;-69
2024/02/06 02:10:13;;;;;;;9.00;3.55;;;10.10;99.90;;;;;;4141681;28;20502;-69
2024/02/06 02:12:13;;;;;;;9.23;3.47;;;10.10;99.90;;;;;;4144476;28;20036;-69
2024/02/06 02:14:14;;;;;;;11.32;3.85;;;10.10;99.90;;;;;;4144529;28;20376;-69
2024/02/06 02:16:18;;;;;;;9.95;3.92;;;10.20;99.90;;;;;;4143399;28;20045;-69
2024/02/06 02:18:19;;;;;;;10.43;3.42;;;10.20;99.90;;;;;;4140183;28;20036;-67
2024/02/06 02:20:20;;;;;;;6.75;3.10;;;10.10;99.90;;;;;;4139097;28;20042;-67
2024/02/06 02:22:21;;;;;;;9.13;3.35;;;10.20;99.90;;;;;;4137971;28;20026;-67
2024/02/06 02:24:22;;;;;;;9.35;3.67;;;10.20;99.90;;;;;;4143973;28;20500;-68
2024/02/06 02:26:23;;;;;;;12.88;3.90;;;10.20;99.90;;;;;;4143300;28;20109;-67
2024/02/06 02:28:24;;;;;;;9.65;4.00;;;10.20;99.90;;;;;;4137703;28;20030;-68
2024/02/06 02:30:26;;;;;;;8.13;3.00;;;10.10;99.90;;;;;;4145453;28;20158;-67
2024/02/06 02:32:28;;;;;;;11.88;3.75;;;10.10;99.90;;;;;;4142491;28;20476;-67
2024/02/06 02:34:29;;;;;;;10.40;3.53;;;10.10;99.90;;;;;;4143758;28;20034;-67
2024/02/06 02:36:29;;;;;;;9.30;3.58;;;10.10;99.90;;;;;;4142838;28;20053;-67
2024/02/06 02:38:30;;;;;;;8.80;3.50;;;10.20;99.90;;;;;;4142945;28;20049;-67
2024/02/06 02:40:30;;;;;;;5.88;3.28;;;10.20;99.90;;;;;;4144257;28;20140;-67
2024/02/06 02:42:31;;;;;;;8.43;4.07;;;10.20;99.90;;;;;;4144297;28;20548;-67
2024/02/06 02:44:31;;;;;;;11.00;3.58;;;10.20;99.90;;;;;;4142473;28;20046;-68
2024/02/06 02:46:32;;;;;;;11.43;3.50;;;10.10;99.90;;;;;;4139965;28;20058;-67
2024/02/06 02:48:34;;;;;;;11.48;3.95;;;10.10;99.90;;;;;;4143612;28;20038;-67
2024/02/06 02:50:35;;;;;;;11.18;3.38;;;10.20;99.90;;;;;;4142675;28;20478;-67
2024/02/06 02:52:35;;;;;;;10.70;3.83;;;10.20;99.90;;;;;;4144035;28;20038;-67
2024/02/06 02:54:36;;;;;;;6.60;3.22;;;10.20;99.90;;;;;;4144305;28;20038;-67
2024/02/06 02:56:36;;;;;;;11.75;4.63;;;10.20;99.90;;;;;;4143280;28;20919;-67
2024/02/06 02:58:37;;;;;;;8.95;3.30;;;10.20;99.90;;;;;;4142025;28;20042;-67
2024/02/06 03:00:37;;;;;;;8.27;3.97;;;10.20;99.90;;;;;;4141585;28;20038;-67
2024/02/06 03:02:38;;;;;;;11.50;3.45;;;10.20;99.90;;;;;;4142927;28;20065;-67
2024/02/06 03:04:40;;;;;;;9.75;3.90;;;10.20;99.90;;;;;;4142930;28;20247;-67
2024/02/06 03:06:43;;;;;;;13.90;3.58;;;10.20;99.90;;;;;;4139871;28;20037;-67
2024/02/06 03:08:44;;;;;;;5.65;3.30;;;10.20;99.90;;;;;;4142031;28;20041;-67
2024/02/06 03:10:45;;;;;;;9.88;3.78;;;10.20;99.90;;;;;;4143070;28;20060;-67
2024/02/06 03:12:45;;;;;;;9.35;3.47;;;10.30;99.90;;;;;;4143669;28;20061;-67
2024/02/06 03:14:46;;;;;;;9.65;3.95;;;10.30;99.90;;;;;;4143327;28;20034;-67
2024/02/06 03:16:48;;;;;;;11.65;3.55;;;10.20;99.90;;;;;;4143193;28;20041;-67
2024/02/06 03:18:48;;;;;;;14.52;3.67;;;10.30;99.90;;;;;;4142810;28;20054;-61
2024/02/06 03:20:49;;;;;;;8.98;3.63;;;10.20;99.90;;;;;;4141708;28;20415;-61
2024/02/06 03:22:49;;;;;;;10.55;3.80;;;10.30;99.90;;;;;;4143735;28;20038;-61
2024/02/06 03:24:50;;;;;;;10.35;3.42;;;10.20;99.90;;;;;;4143900;28;20387;-61
2024/02/06 03:26:51;;;;;;;15.55;3.35;;;10.20;99.90;;;;;;4140905;28;20117;-68
2024/02/06 03:28:51;;;;;;;8.48;3.15;;;10.20;99.90;;;;;;4137794;28;20038;-67
2024/02/06 03:30:52;;;;;;;9.82;3.45;;;10.30;99.90;;;;;;4141609;28;20045;-66
2024/02/06 03:32:54;;;;;;;8.27;3.53;;;10.30;99.90;;;;;;4146612;28;20593;-67
2024/02/06 03:34:56;;;;;;;10.30;3.53;;;10.30;99.90;;;;;;4148202;28;20038;-66
2024/02/06 03:36:56;;;;;;;9.40;3.25;;;10.30;99.90;;;;;;4141941;28;20112;-67
2024/02/06 03:38:57;;;;;;;11.63;3.55;;;10.30;99.90;;;;;;4142550;28;20283;-67
2024/02/06 03:40:57;;;;;;;8.88;3.08;;;10.30;99.90;;;;;;4142054;28;20046;-66
2024/02/06 03:42:58;;;;;;;8.80;2.83;;;10.30;99.90;;;;;;4143268;28;20049;-66
2024/02/06 03:44:59;;;;;;;10.50;3.35;;;10.30;99.90;;;;;;4141049;28;20124;-66
2024/02/06 03:46:59;;;;;;;11.82;3.40;;;10.30;99.90;;;;;;4144955;28;20046;-66
2024/02/06 03:49:00;;;;;;;8.05;3.17;;;10.30;99.90;;;;;;4142615;28;20077;-67
2024/02/06 03:51:02;;;;;;;10.02;3.22;;;10.30;99.90;;;;;;4145519;28;20530;-66
2024/02/06 03:53:03;;;;;;;7.13;3.30;;;10.30;99.90;;;;;;4142820;28;20037;-66
2024/02/06 03:55:04;;;;;;;11.07;3.42;;;10.30;99.90;;;;;;4138716;28;20620;-67
2024/02/06 03:57:05;;;;;;;9.60;3.83;;;10.30;99.90;;;;;;4141701;28;20508;-66
2024/02/06 03:59:06;;;;;;;8.48;3.58;;;10.30;99.90;;;;;;4141777;28;20050;-67
2024/02/06 04:01:06;;;;;;;8.40;3.05;;;10.30;99.90;;;;;;4141490;28;20084;-66
2024/02/06 04:03:07;;;;;;;8.93;3.05;;;10.30;99.90;;;;;;4143228;28;20041;-66
2024/02/06 04:05:08;;;;;;;10.73;3.65;;;10.30;99.90;;;;;;4147144;28;20069;-66
2024/02/06 04:07:09;;;;;;;12.27;3.22;;;10.30;99.90;;;;;;4141352;28;20455;-66
2024/02/06 04:09:10;;;;;;;10.10;3.30;;;10.30;99.90;;;;;;4140569;28;20486;-66
2024/02/06 04:11:12;;;;;;;7.78;3.05;;;10.30;99.90;;;;;;4140847;28;20697;-66
2024/02/06 04:13:13;;;;;;;11.90;3.30;;;10.30;99.90;;;;;;4141952;28;20038;-67
2024/02/06 04:15:13;;;;;;;10.80;4.00;;;10.30;99.90;;;;;;4141591;28;20114;-67
2024/02/06 04:17:14;;;;;;;9.25;3.08;;;10.30;99.90;;;;;;4146831;28;20049;-66
2024/02/06 04:19:14;;;;;;;9.18;2.97;;;10.40;99.90;;;;;;4139177;28;20038;-66
2024/02/06 04:21:15;;;;;;;9.80;3.40;;;10.30;99.90;;;;;;4134583;28;20553;-66
2024/02/06 04:23:16;;;;;;;7.45;3.10;;;10.30;99.90;;;;;;4142076;28;20116;-66
2024/02/06 04:25:16;;;;;;;9.68;3.25;;;10.30;99.90;;;;;;4141620;28;20046;-66
2024/02/06 04:27:18;;;;;;;10.23;3.40;;;10.30;99.90;;;;;;4146276;28;20459;-68
2024/02/06 04:29:19;;;;;;;10.70;3.53;;;10.40;99.90;;;;;;4144414;28;20038;-60
2024/02/06 04:31:19;;;;;;;12.23;3.38;;;10.40;99.90;;;;;;4143894;28;20030;-62
2024/02/06 04:33:20;;;;;;;8.95;3.25;;;10.30;99.90;;;;;;4145230;28;20041;-62
2024/02/06 04:35:21;;;;;;;8.52;3.58;;;10.30;99.90;;;;;;4145841;28;20453;-61
2024/02/06 04:37:22;;;;;;;7.55;3.13;;;10.30;99.90;;;;;;4146286;28;20037;-67
2024/02/06 04:39:23;;;;;;;18.17;3.70;;;10.40;99.90;;;;;;4142966;28;20493;-67
2024/02/06 04:41:23;;;;;;;9.02;2.97;;;10.40;99.90;;;;;;4141423;28;20538;-67
2024/02/06 04:43:24;;;;;;;11.95;3.35;;;10.40;99.90;;;;;;4144990;28;20100;-67
2024/02/06 04:45:25;;;;;;;8.77;3.22;;;10.40;99.90;;;;;;4144260;28;20042;-67
2024/02/06 04:47:25;;;;;;;7.80;3.58;;;10.40;99.90;;;;;;4146174;28;20049;-67
2024/02/06 04:49:26;;;;;;;8.52;3.22;;;10.40;99.90;;;;;;4144926;28;20029;-68
2024/02/06 04:51:27;;;;;;;6.72;2.80;;;10.40;99.90;;;;;;4143063;28;20505;-67
2024/02/06 04:53:28;;;;;;;5.88;3.30;;;10.40;99.90;;;;;;4145014;28;20049;-67
2024/02/06 04:55:29;;;;;;;6.05;2.97;;;10.40;99.90;;;;;;4144673;28;20478;-67
2024/02/06 04:57:29;;;;;;;5.53;3.13;;;10.40;99.90;;;;;;4144065;28;20389;-67
2024/02/06 04:59:30;;;;;;;13.10;3.08;;;10.40;99.90;;;;;;4144984;28;20069;-67
2024/02/06 05:01:33;;;;;;;12.30;3.65;;;10.40;99.90;;;;;;4147045;28;20621;-68
2024/02/06 05:03:34;;;;;;;6.88;2.85;;;10.40;99.90;;;;;;4145517;28;20049;-67
2024/02/06 05:05:35;;;;;;;8.77;3.50;;;10.40;99.90;;;;;;4144374;28;20441;-68
2024/02/06 05:07:35;;;;;;;16.98;3.85;;;10.40;99.90;;;;;;4145296;28;20037;-67
2024/02/06 05:09:36;;;;;;;7.63;3.13;;;10.40;99.90;;;;;;4145243;28;20053;-67
2024/02/06 05:11:37;;;;;;;11.88;3.50;;;10.40;99.90;;;;;;4140300;28;20371;-67
2024/02/06 05:13:37;;;;;;;21.10;3.65;;;10.40;99.90;;;;;;4140372;28;20053;-67
2024/02/06 05:15:38;;;;;;;9.13;3.00;;;10.40;99.90;;;;;;4141576;28;20038;-67
2024/02/06 05:17:40;;;;;;;12.43;3.50;;;10.40;99.90;;;;;;4140452;28;20041;-67
2024/02/06 05:19:42;;;;;;;8.15;2.97;;;10.40;99.90;;;;;;4137328;28;20034;-67
2024/02/06 05:21:42;;;;;;;10.43;2.70;;;10.40;99.90;;;;;;4138604;28;20466;-67
2024/02/06 05:23:43;;;;;;;7.50;3.17;;;10.40;99.90;;;;;;4142084;28;20079;-67
2024/02/06 05:25:43;;;;;;;7.95;2.80;;;10.40;99.90;;;;;;4138611;28;20132;-67
2024/02/06 05:27:44;;;;;;;7.53;3.20;;;10.40;99.90;;;;;;4143329;28;20034;-67
2024/02/06 05:29:45;;;;;;;8.20;3.42;;;10.40;99.90;;;;;;4144613;28;20061;-67
2024/02/06 05:31:45;;;;;;;11.65;3.80;;;10.40;99.90;;;;;;4146035;28;20116;-67
2024/02/06 05:33:46;;;;;;;11.75;3.67;;;10.40;99.90;;;;;;4149373;28;20083;-67
2024/02/06 05:35:46;;;;;;;10.38;3.65;;;10.40;99.90;;;;;;4142045;28;20042;-67
2024/02/06 05:37:47;;;;;;;7.70;3.45;;;10.40;99.90;;;;;;4141866;28;20038;-67
2024/02/06 05:39:47;;;;;;;11.63;3.38;;;10.40;99.90;;;;;;4140079;28;20109;-67
2024/02/06 05:41:48;;;;;;;8.63;3.33;;;10.40;99.90;;;;;;4141555;28;20121;-67
2024/02/06 05:43:49;;;;;;;12.45;2.97;;;10.40;99.90;;;;;;4140328;28;20153;-67
2024/02/06 05:45:49;;;;;;;8.65;3.58;;;10.40;99.90;;;;;;4131417;28;20424;-67
2024/02/06 05:47:50;;;;;;;9.05;3.58;;;10.40;99.90;;;;;;4133008;28;20394;-67
2024/02/06 05:49:51;;;;;;;7.03;3.40;;;10.40;99.90;;;;;;4135955;28;20390;-68
2024/02/06 05:51:51;;;;;;;10.40;3.50;;;10.40;99.90;;;;;;4140862;28;20062;-68
2024/02/06 05:53:52;;;;;;;12.40;3.67;;;10.30;99.90;;;;;;4132459;28;20042;-68
2024/02/06 05:55:53;;;;;;;15.13;4.10;;;10.30;99.90;;;;;;4138979;28;20532;-68
2024/02/06 05:57:53;;;;;;;10.75;3.88;;;10.40;99.90;;;;;;4140677;28;20080;-68
2024/02/06 05:59:54;;;;;;;14.73;4.25;;;10.30;99.90;;;;;;4141684;28;20401;-69
2024/02/06 06:01:54;;;;;;;14.68;4.35;;;10.30;99.90;;;;;;4141042;28;20053;-68
2024/02/06 06:03:55;;;;;;;9.73;3.53;;;10.30;99.90;;;;;;4143300;28;20042;-68
2024/02/06 06:05:56;;;;;;;7.82;3.67;;;10.30;99.90;;;;;;4139980;28;20141;-69
2024/02/06 06:07:56;;;;;;;12.32;4.03;;;10.30;99.90;;;;;;4139791;28;20042;-69
2024/02/06 06:09:57;;;;;;;7.80;3.47;;;10.30;99.90;;;;;;4141087;28;20044;-69
2024/02/06 06:11:57;;;;;;;10.80;4.15;;;10.30;99.90;;;;;;4143441;28;20129;-69
2024/02/06 06:14:16;;;;;;;15.55;4.57;;;10.40;99.90;;;;;;4116473;28;20711;-69
2024/02/06 06:16:35;;;;;;;12.73;4.35;;;10.40;99.90;;;;;;4139749;28;20122;-69
2024/02/06 06:18:54;;;;;;;10.25;3.28;;;10.30;99.90;;;;;;4128268;28;20523;-69
2024/02/06 06:20:55;;;;;;;12.43;3.85;;;10.40;99.90;;;;;;4135264;28;20034;-68
2024/02/06 06:22:56;;;;;;;11.85;3.60;;;10.40;99.90;;;;;;4135681;28;20551;-69
2024/02/06 06:24:56;;;;;;;9.32;3.85;;;10.40;99.90;;;;;;4140328;28;20038;-68
2024/02/06 06:26:57;;;;;;;11.07;3.78;;;10.40;99.90;;;;;;4138622;28;20042;-68
2024/02/06 06:28:57;;;;;;;15.45;4.70;;;10.40;99.90;;;;;;4141068;28;20169;-69
2024/02/06 06:30:58;;;;;;;9.93;3.88;;;10.40;99.90;;;;;;4134112;28;20445;-70
2024/02/06 06:32:59;;;;;;;14.05;4.03;;;10.40;99.90;;;;;;4123729;28;20034;-69
2024/02/06 06:34:59;;;;;;;9.05;3.78;;;10.40;99.90;;;;;;4129433;28;20049;-69
2024/02/06 06:37:00;;;;;;;7.57;3.67;;;10.40;99.90;;;;;;4136292;28;20551;-70
2024/02/06 06:39:00;;;;;;;13.73;4.28;;;10.40;99.90;;;;;;4137274;28;20041;-68
2024/02/06 06:41:01;;;;;;;11.18;3.72;;;10.40;99.90;;;;;;4139412;28;20041;-69
2024/02/06 06:43:02;;;;;;;11.07;4.18;;;10.50;99.90;;;;;;4133489;28;20053;-68
2024/02/06 06:45:03;;;;;;;12.23;3.72;;;10.40;99.90;;;;;;4138482;28;20097;-69
2024/02/06 06:47:05;;;;;;;12.27;3.53;;;10.50;99.90;;;;;;4136543;28;20038;-70
2024/02/06 06:49:05;;;;;;;19.02;3.97;;;10.50;99.90;;;;;;4135691;28;20128;-67
2024/02/06 06:51:06;;;;;;;9.95;3.83;;;10.50;99.90;;;;;;4139436;28;20078;-67
2024/02/06 06:53:09;;;;;;;11.45;3.88;;;10.50;99.90;;;;;;4140010;28;20034;-67
2024/02/06 06:55:09;;;;;;;13.65;3.90;;;10.50;99.90;;;;;;4140061;28;20045;-66
2024/02/06 06:57:10;;;;;;;13.10;4.05;;;10.50;99.90;;;;;;4132896;28;20329;-66
2024/02/06 06:59:11;;;;;;;8.90;3.05;;;10.50;99.90;;;;;;4138981;28;20133;-66
2024/02/06 07:01:11;;;;;;;9.20;3.80;;;10.50;99.90;;;;;;4138335;28;20046;-66
2024/02/06 07:03:12;;;;;;;11.82;3.80;;;10.50;99.90;;;;;;4140573;28;20049;-65
2024/02/06 07:05:13;;;;;;;10.52;3.42;;;10.50;99.90;;;;;;4136567;28;20042;-65
2024/02/06 07:07:14;;;;;;;9.60;3.47;;;10.50;99.90;;;;;;4139370;28;20042;-66
2024/02/06 07:09:16;;;;;;;8.35;3.63;;;10.50;99.90;;;;;;4140200;28;20124;-65
2024/02/06 07:11:17;;;;;;;15.90;4.05;;;10.50;99.90;;;;;;4139683;28;20135;-66
2024/02/06 07:13:17;;;;;;;11.25;4.57;;;10.50;99.90;;;;;;4140087;28;20054;-66
2024/02/06 07:15:18;;;;;;;12.50;4.38;;;10.50;99.90;;;;;;4138492;28;20463;-66
2024/02/06 07:17:18;;;;;;;15.77;4.25;;;10.50;99.90;;;;;;4121692;28;20112;-66
2024/02/06 07:19:19;;;;;;;15.35;3.80;;;10.50;99.90;;;;;;4138733;28;20041;-66
2024/02/06 07:21:20;;;;;;;16.42;4.20;;;10.50;99.90;;;;;;4137497;28;20033;-66
2024/02/06 07:23:20;;;;;;;12.02;4.00;;;10.50;99.90;;;;;;4139229;28;20211;-66
2024/02/06 07:25:21;;;;;;;11.32;4.13;;;10.50;99.90;;;;;;4137824;28;20057;-65
2024/02/06 07:27:21;;;;;;;11.50;3.47;;;10.50;99.90;;;;;;4137590;28;20132;-66
2024/02/06 07:29:22;;;;;;;13.10;4.53;;;10.50;99.90;;;;;;4136022;28;20030;-65
2024/02/06 07:31:23;;;;;;;11.10;4.30;;;10.50;99.90;;;;;;4135940;28;20413;-65
2024/02/06 07:33:24;;;;;;;9.52;3.95;;;10.60;99.90;;;;;;4138299;28;20042;-66
2024/02/06 07:35:24;;;;;;;14.05;4.50;;;10.60;99.90;;;;;;4135825;28;20073;-66
2024/02/06 07:37:25;;;;;;;15.27;4.05;;;10.60;99.90;;;;;;4138725;28;20095;-65
2024/02/06 07:39:26;;;;;;;12.85;4.10;;;10.50;99.90;;;;;;4139235;28;20546;-65
2024/02/06 07:41:27;;;;;;;12.57;3.97;;;10.60;99.90;;;;;;4137937;28;20399;-65
2024/02/06 07:43:28;;;;;;;10.60;3.53;;;10.60;99.90;;;;;;4141019;28;20045;-65
2024/02/06 07:45:48;;;;;;;9.88;3.58;;;10.60;99.90;;;;;;4118666;28;20563;-65
2024/02/06 07:48:08;;;;;;;13.32;3.88;;;10.60;99.90;;;;;;4123015;28;20086;-66
2024/02/06 07:50:27;;;;;;;13.73;3.88;;;10.60;99.90;;;;;;4092118;28;20149;-67
2024/02/06 07:52:46;;;;;;;7.53;3.45;;;10.60;99.90;;;;;;4117939;28;20413;-65
2024/02/06 07:55:06;;;;;;;14.18;4.30;;;10.60;99.90;;;;;;4139721;28;20157;-66
2024/02/06 07:57:25;;;;;;;13.48;4.03;;;10.60;99.90;;;;;;4093084;28;20561;-60
2024/02/06 07:59:46;;;;;;;10.27;3.88;;;10.60;99.90;;;;;;4117855;28;20052;-65
2024/02/06 08:02:06;;;;;;;16.08;3.95;;;10.70;99.90;;;;;;4091801;28;20056;-65
2024/02/06 08:04:25;;;;;;;12.85;4.10;;;10.70;99.90;;;;;;4117395;28;20048;-65
2024/02/06 08:06:44;;;;;;;9.88;3.70;;;10.70;99.90;;;;;;4087628;28;20052;-64
2024/02/06 08:09:05;;;;;;;9.65;3.80;;;10.70;99.90;;;;;;4108573;28;20108;-66
2024/02/06 08:11:24;;;;;;;12.60;3.92;;;10.70;99.90;;;;;;4116214;28;20047;-66
2024/02/06 08:13:44;;;;;;;15.88;4.47;;;10.70;99.90;;;;;;4121915;28;20088;-66
2024/02/06 08:16:03;;;;;;;10.15;3.85;;;10.70;99.90;;;;;;4091742;28;20051;-66
2024/02/06 08:18:04;;;;;;;14.07;3.80;;;10.80;99.90;;;;;;4136323;28;20156;-66
2024/02/06 08:20:06;;;;;;;10.98;4.30;;;10.80;99.90;;;;;;4139275;28;20125;-69
2024/02/06 08:22:07;;;;;;;11.60;3.85;;;10.80;99.90;;;;;;4139009;28;20519;-66
2024/02/06 08:24:09;;;;;;;7.85;3.38;;;10.80;99.90;;;;;;4137212;28;20038;-67
2024/02/06 08:26:10;;;;;;;14.38;4.82;;;10.80;99.90;;;;;;4138158;28;20088;-67
2024/02/06 08:28:10;;;;;;;12.98;3.80;;;10.80;99.90;;;;;;4138733;28;20045;-67
2024/02/06 08:30:12;;;;;;;14.50;4.43;;;10.80;99.90;;;;;;4137752;28;20048;-67
2024/02/06 08:32:12;;;;;;;14.07;4.03;;;10.80;99.90;;;;;;4141289;28;20505;-66
2024/02/06 08:34:14;;;;;;;13.23;4.65;;;10.90;99.90;;;;;;4137414;28;20050;-66
2024/02/06 08:36:14;;;;;;;14.88;3.60;;;10.90;99.90;;;;;;4135508;28;20049;-67
2024/02/06 08:38:15;;;;;;;10.93;4.13;;;10.90;99.90;;;;;;4135121;28;20050;-66
2024/02/06 08:40:16;;;;;;;14.35;4.20;;;10.90;99.90;;;;;;4132524;28;20104;-67
2024/02/06 08:42:17;;;;;;;13.57;3.80;;;10.90;99.90;;;;;;4137197;28;20045;-66
2024/02/06 08:44:18;;;;;;;10.35;3.58;;;10.90;99.90;;;;;;4137527;28;20663;-67
2024/02/06 08:46:19;;;;;;;10.13;3.45;;;10.90;99.90;;;;;;4134687;28;20034;-66
2024/02/06 08:48:19;;;;;;;13.88;4.20;;;11.00;99.90;;;;;;4138115;28;20046;-66
2024/02/06 08:50:20;;;;;;;15.18;4.05;;;11.00;99.90;;;;;;4130155;28;20053;-66
2024/02/06 08:52:22;;;;;;;15.15;4.20;;;11.00;99.90;;;;;;4138700;28;20061;-66
2024/02/06 08:54:22;;;;;;;13.57;3.97;;;11.00;99.90;;;;;;4136719;28;20616;-66
2024/02/06 08:56:23;;;;;;;12.27;3.88;;;11.00;99.90;;;;;;4136038;28;20030;-66
2024/02/06 08:58:23;;;;;;;17.88;4.28;;;11.00;99.90;;;;;;4137457;28;20054;-66
2024/02/06 09:00:24;;;;;;;13.25;4.20;;;11.00;99.90;;;;;;4135720;28;20482;-66
2024/02/06 09:02:26;;;;;;;14.70;4.75;;;11.00;99.90;;;;;;4136783;28;20044;-66
2024/02/06 09:04:27;;;;;;;13.50;3.83;;;11.00;99.90;;;;;;4115422;28;20042;-66
2024/02/06 09:06:27;;;;;;;16.77;4.22;;;11.00;99.90;;;;;;4131745;28;21021;-66
2024/02/06 09:08:28;;;;;;;10.38;3.80;;;11.00;99.90;;;;;;4137278;28;20096;-74
2024/02/06 09:10:28;;;;;;;16.48;4.03;;;11.10;99.90;;;;;;4130000;28;20034;-74
2024/02/06 09:12:29;;;;;;;10.55;3.35;;;11.10;99.90;;;;;;4132766;28;20049;-73
2024/02/06 09:14:29;;;;;;;12.13;3.88;;;11.00;99.90;;;;;;4134909;28;20432;-74
2024/02/06 09:16:30;;;;;;;9.77;3.47;;;11.10;99.90;;;;;;4134537;28;20481;-74
2024/02/06 09:18:31;;;;;;;12.48;3.50;;;11.10;99.90;;;;;;4140247;28;20046;-74
2024/02/06 09:20:31;;;;;;;13.13;4.25;;;11.10;99.90;;;;;;4138071;28;20044;-74
2024/02/06 09:22:32;;;;;;;15.85;3.88;;;11.10;99.90;;;;;;4137838;28;20446;-74
2024/02/06 09:24:33;;;;;;;13.40;3.95;;;11.10;99.90;;;;;;4138441;28;20046;-73
2024/02/06 09:26:33;;;;;;;17.08;4.57;;;11.10;99.90;;;;;;4136838;28;20109;-73
2024/02/06 09:28:34;;;;;;;12.23;4.18;;;11.00;99.90;;;;;;4137168;28;20042;-74
2024/02/06 09:30:37;;;;;;;10.10;3.55;;;11.00;99.90;;;;;;4138208;28;20046;-74
2024/02/06 09:32:39;;;;;;;15.32;4.10;;;11.00;99.90;;;;;;4136850;28;20450;-74
2024/02/06 09:34:40;;;;;;;12.73;4.07;;;11.00;99.90;;;;;;4139861;28;20471;-71
2024/02/06 09:36:42;;;;;;;9.27;3.75;;;11.00;99.90;;;;;;4138357;28;20040;-73
2024/02/06 09:38:42;;;;;;;8.05;3.55;;;10.90;99.90;;;;;;4137646;28;20065;-74
2024/02/06 09:40:45;;;;;;;14.23;3.50;;;10.90;99.90;;;;;;4139070;28;20046;-74
2024/02/06 09:42:45;;;;;;;10.55;3.95;;;10.90;99.90;;;;;;4140289;28;20034;-74
2024/02/06 09:44:46;;;;;;;12.68;4.03;;;10.80;99.90;;;;;;4139360;28;20052;-74
2024/02/06 09:46:50;;;;;;;13.38;4.72;;;10.80;99.90;;;;;;4137804;28;20115;-75
2024/02/06 09:48:51;;;;;;;7.80;3.70;;;10.80;99.90;;;;;;4139254;28;20556;-75
2024/02/06 09:50:55;;;;;;;15.38;4.50;;;10.80;99.90;;;;;;4139590;28;20041;-75
2024/02/06 09:52:57;;;;;;;10.43;3.50;;;10.80;99.90;;;;;;4140404;28;20084;-75
2024/02/06 09:55:01;;;;;;;13.07;4.05;;;10.80;99.90;;;;;;4141666;28;20436;-75
2024/02/06 09:57:03;;;;;;;8.50;3.50;;;10.90;99.90;;;;;;4136728;28;20627;-75
2024/02/06 09:59:07;;;;;;;13.05;4.05;;;10.90;99.90;;;;;;4138620;28;20045;-75
2024/02/06 10:01:12;;;;;;;13.13;4.53;;;10.90;99.90;;;;;;4137445;28;20402;-75
2024/02/06 10:03:19;;;;;;;13.18;4.10;;;10.90;99.90;;;;;;4139268;28;20041;-74
2024/02/06 10:05:23;;;;;;;15.52;4.32;;;10.90;99.90;;;;;;4137388;28;20057;-75
2024/02/06 10:07:24;;;;;;;12.18;4.25;;;11.00;99.90;;;;;;4139164;28;20053;-75
2024/02/06 10:09:28;;;;;;;13.23;4.20;;;10.90;99.90;;;;;;4138574;28;20168;-74
2024/02/06 10:11:33;;;;;;;11.95;3.70;;;10.90;99.90;;;;;;4139124;28;20038;-74
2024/02/06 10:13:34;;;;;;;16.15;3.90;;;11.00;99.90;;;;;;4135055;28;20161;-74
2024/02/06 10:15:35;;;;;;;11.52;4.05;;;11.00;99.90;;;;;;4134826;28;20069;-74
2024/02/06 10:17:39;;;;;;;14.43;3.65;;;10.90;99.90;;;;;;4139988;28;20057;-75
2024/02/06 10:19:40;;;;;;;10.82;4.03;;;11.00;99.90;;;;;;4139606;28;20345;-72
2024/02/06 10:21:41;;;;;;;11.15;4.07;;;11.00;99.90;;;;;;4140455;28;20427;-75
2024/02/06 10:23:41;;;;;;;9.10;3.97;;;11.00;99.90;;;;;;4139627;28;20092;-75
2024/02/06 10:25:43;;;;;;;11.85;4.45;;;11.00;99.90;;;;;;4138802;28;20058;-76
2024/02/06 10:27:44;;;;;;;12.93;3.75;;;11.00;99.90;;;;;;4137924;28;20049;-67
2024/02/06 10:29:59;;;;;;;10.00;3.72;;;11.00;99.90;;;;;;4137632;28;20038;-66
2024/02/06 10:32:11;;;;;;;10.63;3.35;;;11.00;99.90;;;;;;4133366;28;20177;-66